Time;durP1;ratioP1;P1;durP2;ratioP2;P2;SDS_P1;SDS_P2;PMS_P1;PMS_P2;Temp;Humidity;BMP_temperature;BMP_pressure;BME280_temperature;BME280_humidity;BME280_pressure;Samples;Min_cycle;Max_cycle;Signal;HPM_P1;HPM_P2
2022/06/06 00:00:10;;;;;;;118.88;85.30;;;27.40;99.90;;;;;;5032945;28;20029;-63
2022/06/06 00:02:37;;;;;;;119.80;81.72;;;27.40;99.90;;;;;;5069282;28;20025;-63
2022/06/06 00:05:05;;;;;;;119.00;77.70;;;27.30;99.90;;;;;;5073012;28;20028;-62
2022/06/06 00:07:32;;;;;;;112.72;78.97;;;27.40;99.90;;;;;;5055480;28;20255;-65
2022/06/06 00:09:59;;;;;;;106.25;76.28;;;27.50;99.90;;;;;;5076931;28;20048;-63
2022/06/06 00:12:25;;;;;;;103.32;73.22;;;27.50;99.90;;;;;;5076897;28;20028;-62
2022/06/06 00:14:52;;;;;;;107.57;73.95;;;27.50;99.90;;;;;;5064347;28;20068;-62
2022/06/06 00:17:19;;;;;;;92.80;65.70;;;27.60;99.90;;;;;;5070784;28;20028;-63
2022/06/06 00:19:45;;;;;;;92.10;64.25;;;27.70;99.90;;;;;;5054174;28;20028;-63
2022/06/06 00:22:12;;;;;;;99.88;65.68;;;27.70;99.90;;;;;;5056419;28;20018;-62
2022/06/06 00:24:39;;;;;;;95.38;66.03;;;27.70;99.90;;;;;;5058985;28;20048;-62
2022/06/06 00:27:06;;;;;;;85.18;63.30;;;27.70;99.90;;;;;;5076770;28;20023;-62
2022/06/06 00:29:35;;;;;;;93.30;63.58;;;27.80;99.90;;;;;;5076464;28;20052;-62
2022/06/06 00:34:50;;;;;;;78.72;56.75;;;27.90;99.90;;;;;;5040433;28;20087;-63
2022/06/06 00:37:20;;;;;;;79.28;54.88;;;28.00;99.90;;;;;;5076418;28;20017;-64
2022/06/06 00:39:47;;;;;;;63.45;50.30;;;28.10;99.90;;;;;;5070916;28;20033;-65
2022/06/06 00:42:22;;;;;;;67.22;49.15;;;28.20;99.90;;;;;;5076277;28;20025;-63
2022/06/06 00:45:09;;;;;;;65.13;46.70;;;28.30;99.90;;;;;;5076230;28;20021;-61
2022/06/06 00:47:38;;;;;;;68.07;51.25;;;28.40;99.90;;;;;;5070292;28;20485;-62
2022/06/06 00:50:15;;;;;;;63.45;50.92;;;28.50;99.90;;;;;;5065418;28;20031;-62
2022/06/06 00:52:44;;;;;;;65.53;50.45;;;28.50;99.90;;;;;;5069856;28;20024;-62
2022/06/06 00:55:20;;;;;;;70.90;55.95;;;28.50;99.90;;;;;;5076425;28;20492;-62
2022/06/06 00:57:57;;;;;;;88.25;57.50;;;28.60;99.90;;;;;;5069807;28;20043;-62
2022/06/06 01:00:25;;;;;;;67.80;49.78;;;28.70;99.90;;;;;;5076022;28;20082;-61
2022/06/06 01:02:56;;;;;;;69.03;50.95;;;28.70;99.90;;;;;;5075915;28;20107;-63
2022/06/06 01:05:24;;;;;;;59.45;47.38;;;28.60;99.90;;;;;;5075923;28;20032;-63
2022/06/06 01:07:51;;;;;;;62.53;50.42;;;28.60;99.90;;;;;;5070089;28;20043;-63
2022/06/06 01:10:18;;;;;;;60.50;47.55;;;28.60;99.90;;;;;;5075659;28;20115;-62
2022/06/06 01:12:49;;;;;;;57.70;45.58;;;28.60;99.90;;;;;;5075338;28;20444;-63
2022/06/06 01:15:18;;;;;;;55.28;41.60;;;28.60;99.90;;;;;;5075843;28;20021;-63
2022/06/06 01:18:08;;;;;;;54.38;41.70;;;28.60;99.90;;;;;;5069615;28;20492;-62
2022/06/06 01:21:13;;;;;;;54.00;41.15;;;28.60;99.90;;;;;;5064492;28;20068;-64
2022/06/06 01:24:01;;;;;;;53.92;40.95;;;28.60;99.90;;;;;;5075637;28;20063;-63
2022/06/06 01:26:51;;;;;;;59.65;42.60;;;28.60;99.90;;;;;;5064575;28;20087;-62
2022/06/06 01:29:28;;;;;;;52.63;42.47;;;28.70;99.90;;;;;;5074965;28;20091;-62
2022/06/06 01:32:07;;;;;;;53.05;38.28;;;28.70;99.90;;;;;;5065702;28;20153;-63
2022/06/06 01:34:37;;;;;;;46.45;36.88;;;28.70;99.90;;;;;;5056300;28;20415;-63
2022/06/06 01:37:22;;;;;;;50.88;37.55;;;28.70;99.90;;;;;;5049769;28;20079;-63
2022/06/06 01:39:48;;;;;;;52.45;38.35;;;28.70;99.90;;;;;;5046414;28;20021;-63
2022/06/06 01:42:26;;;;;;;52.80;36.47;;;28.70;99.90;;;;;;5070537;28;20035;-63
2022/06/06 01:45:01;;;;;;;46.50;36.22;;;28.80;99.90;;;;;;5069218;28;20465;-64
2022/06/06 01:47:50;;;;;;;46.42;38.95;;;28.80;99.90;;;;;;5051723;28;20028;-63
2022/06/06 01:50:18;;;;;;;53.33;38.53;;;28.80;99.90;;;;;;5054270;28;20363;-64
2022/06/06 01:52:53;;;;;;;49.15;38.30;;;28.80;99.90;;;;;;5069500;28;20031;-63
2022/06/06 01:55:20;;;;;;;53.50;39.65;;;28.90;99.90;;;;;;5068119;28;20377;-63
2022/06/06 01:57:49;;;;;;;51.88;38.20;;;28.90;99.90;;;;;;5074987;28;20469;-63
2022/06/06 02:00:16;;;;;;;52.80;36.50;;;29.00;99.90;;;;;;5069662;28;20028;-63
2022/06/06 02:02:43;;;;;;;42.88;34.75;;;29.00;99.90;;;;;;5053492;28;20601;-63
2022/06/06 02:05:12;;;;;;;40.85;31.00;;;29.00;99.90;;;;;;5054757;28;20432;-63
2022/06/06 02:07:40;;;;;;;37.45;32.03;;;29.00;99.90;;;;;;5053056;28;20136;-64
2022/06/06 02:10:09;;;;;;;37.25;29.63;;;29.00;99.90;;;;;;5067899;28;20116;-63
2022/06/06 02:12:41;;;;;;;42.95;31.10;;;29.10;99.90;;;;;;5074447;28;20039;-63
2022/06/06 02:15:10;;;;;;;43.60;31.70;;;29.10;99.90;;;;;;5066656;28;20028;-64
2022/06/06 02:17:37;;;;;;;42.08;30.35;;;29.10;99.90;;;;;;5067169;28;20033;-63
2022/06/06 02:20:05;;;;;;;47.42;31.52;;;29.10;99.90;;;;;;5051179;28;20036;-63
2022/06/06 02:22:32;;;;;;;38.65;31.73;;;29.10;99.90;;;;;;5052217;28;20028;-63
2022/06/06 02:24:59;;;;;;;39.53;31.73;;;29.10;99.90;;;;;;5057116;28;20090;-64
2022/06/06 02:27:26;;;;;;;41.00;32.55;;;29.10;99.90;;;;;;5066207;28;20028;-64
2022/06/06 02:29:53;;;;;;;40.65;31.45;;;29.10;99.90;;;;;;5048856;28;20036;-63
2022/06/06 02:32:20;;;;;;;39.13;28.63;;;29.10;99.90;;;;;;5051355;28;20497;-63
2022/06/06 02:34:47;;;;;;;37.47;29.52;;;29.10;99.90;;;;;;5052030;28;20037;-63
2022/06/06 02:37:14;;;;;;;44.67;29.08;;;29.10;99.90;;;;;;5051781;28;20367;-63
2022/06/06 02:39:40;;;;;;;36.33;27.15;;;29.20;99.90;;;;;;5053895;28;20036;-64
2022/06/06 02:42:08;;;;;;;44.58;29.48;;;29.20;99.90;;;;;;5053942;28;20032;-63
2022/06/06 02:44:35;;;;;;;39.15;28.50;;;29.20;99.90;;;;;;5048278;28;20382;-63
2022/06/06 02:47:01;;;;;;;37.25;27.15;;;29.10;99.90;;;;;;5054419;28;20033;-64
2022/06/06 02:49:29;;;;;;;40.92;28.65;;;29.20;99.90;;;;;;5049473;28;20029;-64
2022/06/06 02:51:56;;;;;;;45.95;30.08;;;29.20;99.90;;;;;;5054034;28;20032;-64
2022/06/06 02:54:23;;;;;;;40.30;27.58;;;29.10;99.90;;;;;;5051135;28;20080;-65
2022/06/06 02:56:49;;;;;;;38.55;24.95;;;29.20;99.90;;;;;;5051223;28;20029;-66
2022/06/06 02:59:18;;;;;;;31.73;23.13;;;29.20;99.90;;;;;;5052191;28;20017;-64
2022/06/06 03:01:45;;;;;;;37.95;25.55;;;29.20;99.90;;;;;;5050554;28;20032;-65
2022/06/06 03:04:11;;;;;;;34.40;25.17;;;29.20;99.90;;;;;;5052328;28;20096;-63
2022/06/06 03:06:58;;;;;;;35.17;27.42;;;29.10;99.90;;;;;;5049419;28;20551;-64
2022/06/06 03:09:58;;;;;;;41.17;27.63;;;29.20;99.90;;;;;;5052110;28;20025;-64
2022/06/06 03:12:43;;;;;;;41.28;32.03;;;29.20;99.90;;;;;;5053483;28;20354;-64
2022/06/06 03:15:27;;;;;;;45.58;33.05;;;29.30;99.90;;;;;;5050290;28;20037;-65
2022/06/06 03:21:33;;;;;;;49.85;40.33;;;29.40;99.90;;;;;;5050102;28;20036;-63
2022/06/06 03:24:14;;;;;;;57.00;31.63;;;29.40;99.90;;;;;;5046187;28;20021;-63
2022/06/06 03:26:59;;;;;;;40.30;27.73;;;29.40;99.90;;;;;;5058484;28;20036;-63
2022/06/06 03:29:28;;;;;;;42.45;29.42;;;29.40;99.90;;;;;;5061643;28;20021;-63
2022/06/06 03:32:30;;;;;;;45.17;28.70;;;29.50;99.90;;;;;;5063906;28;20470;-63
2022/06/06 03:35:06;;;;;;;44.23;31.90;;;29.50;99.90;;;;;;5013245;28;20067;-64
2022/06/06 03:37:43;;;;;;;37.10;26.30;;;29.50;99.90;;;;;;5061068;28;20270;-63
2022/06/06 03:40:25;;;;;;;36.55;24.98;;;29.50;99.90;;;;;;5062746;28;20028;-63
2022/06/06 03:43:02;;;;;;;33.08;22.88;;;29.50;99.90;;;;;;5059504;28;20048;-64
2022/06/06 03:45:51;;;;;;;34.45;24.83;;;29.50;99.90;;;;;;5058184;28;20052;-64
2022/06/06 03:48:43;;;;;;;44.33;28.17;;;29.50;99.90;;;;;;5069250;28;20388;-64
2022/06/06 03:51:22;;;;;;;47.25;35.60;;;29.50;99.90;;;;;;5056863;28;20033;-63
2022/06/06 03:54:07;;;;;;;59.45;38.85;;;29.60;99.90;;;;;;5057709;28;20225;-63
2022/06/06 03:56:53;;;;;;;57.63;42.22;;;29.60;99.90;;;;;;5058914;28;20083;-62
2022/06/06 03:59:21;;;;;;;51.67;36.03;;;29.70;99.90;;;;;;5061541;28;20025;-62
2022/06/06 04:01:50;;;;;;;54.97;38.47;;;29.70;99.90;;;;;;5065927;28;20009;-63
2022/06/06 04:04:18;;;;;;;35.03;26.67;;;29.80;99.90;;;;;;5063205;28;20482;-64
2022/06/06 04:06:46;;;;;;;23.45;18.83;;;29.90;99.90;;;;;;5060008;28;20048;-62
2022/06/06 04:09:13;;;;;;;24.80;18.15;;;30.00;99.90;;;;;;5060983;28;20025;-63
2022/06/06 04:11:57;;;;;;;22.45;18.40;;;30.00;99.90;;;;;;5059272;28;20063;-62
2022/06/06 04:14:38;;;;;;;24.33;18.33;;;30.00;99.90;;;;;;5059549;28;20024;-61
2022/06/06 04:17:13;;;;;;;21.55;17.83;;;30.00;99.90;;;;;;5064893;28;20530;-62
2022/06/06 04:19:40;;;;;;;24.58;18.15;;;30.10;99.90;;;;;;5059227;28;20128;-63
2022/06/06 04:22:17;;;;;;;35.30;16.10;;;30.10;99.90;;;;;;5059071;28;20039;-62
2022/06/06 04:25:11;;;;;;;21.17;15.85;;;30.10;99.90;;;;;;5062855;28;20021;-62
2022/06/06 04:27:59;;;;;;;30.45;17.70;;;30.10;99.90;;;;;;5060106;28;20029;-63
2022/06/06 04:30:44;;;;;;;26.95;17.98;;;30.10;99.90;;;;;;5067290;28;20021;-62
2022/06/06 04:33:11;;;;;;;26.55;19.08;;;30.20;99.90;;;;;;5065045;28;20354;-62
2022/06/06 04:36:03;;;;;;;35.20;24.48;;;30.20;99.90;;;;;;5066100;28;20029;-61
2022/06/06 04:39:11;;;;;;;59.00;47.40;;;30.10;99.90;;;;;;5061866;28;20378;-62
2022/06/06 04:42:03;;;;;;;27.90;22.58;;;30.10;99.90;;;;;;5023025;28;20045;-63
2022/06/06 04:44:32;;;;;;;;;;;30.10;99.90;;;;;;5046979;28;20099;-61
2022/06/06 04:47:16;;;;;;;27.35;21.48;;;30.10;99.90;;;;;;5044109;28;19916;-63
2022/06/06 04:49:44;;;;;;;33.40;26.10;;;30.10;99.90;;;;;;5026740;28;20470;-62
2022/06/06 04:52:11;;;;;;;36.55;20.17;;;30.10;99.90;;;;;;5055638;28;20409;-64
2022/06/06 04:54:42;;;;;;;34.45;20.70;;;30.20;99.90;;;;;;5055957;28;20427;-63
2022/06/06 04:57:11;;;;;;;34.50;21.27;;;30.10;99.90;;;;;;5049184;28;20132;-63
2022/06/06 04:59:41;;;;;;;24.95;20.02;;;30.10;99.90;;;;;;5054040;28;20041;-64
2022/06/06 05:02:08;;;;;;;29.20;20.63;;;30.20;99.90;;;;;;5039418;28;20506;-65
2022/06/06 05:04:35;;;;;;;31.63;25.20;;;30.10;99.90;;;;;;5054742;28;20029;-64
2022/06/06 05:07:21;;;;;;;104.75;77.93;;;30.20;99.90;;;;;;5054256;28;20060;-63
2022/06/06 05:10:06;;;;;;;39.80;26.77;;;30.20;99.90;;;;;;5055677;28;20036;-63
2022/06/06 05:12:54;;;;;;;46.30;35.90;;;30.20;99.90;;;;;;5056689;28;20104;-62
2022/06/06 05:15:40;;;;;;;47.50;37.08;;;30.30;99.90;;;;;;5053056;28;20055;-63
2022/06/06 05:18:22;;;;;;;32.15;27.08;;;30.30;99.90;;;;;;5044742;28;20424;-63
2022/06/06 05:21:16;;;;;;;37.78;28.35;;;30.30;99.90;;;;;;5046865;28;20029;-64
2022/06/06 05:24:07;;;;;;;36.45;29.23;;;30.30;99.90;;;;;;5048674;28;20049;-64
2022/06/06 05:26:43;;;;;;;33.72;26.35;;;30.30;99.90;;;;;;5058317;28;20441;-63
2022/06/06 05:29:22;;;;;;;31.80;25.98;;;30.30;99.90;;;;;;5058695;28;20036;-63
2022/06/06 05:32:07;;;;;;;33.97;26.75;;;30.30;99.90;;;;;;5075228;28;20108;-63
2022/06/06 05:34:45;;;;;;;28.65;24.02;;;30.30;99.90;;;;;;5063080;28;20071;-63
2022/06/06 05:37:47;;;;;;;33.05;24.58;;;30.30;99.90;;;;;;5057554;28;20024;-63
2022/06/06 05:40:39;;;;;;;31.67;24.55;;;30.30;99.90;;;;;;5027832;28;20087;-62
2022/06/06 05:43:12;;;;;;;32.53;25.65;;;30.30;99.90;;;;;;5061553;28;20029;-62
2022/06/06 05:46:06;;;;;;;35.33;25.95;;;30.30;99.90;;;;;;5052246;28;20031;-63
2022/06/06 05:48:39;;;;;;;30.27;25.27;;;30.30;99.90;;;;;;5045246;28;20034;-64
2022/06/06 05:51:27;;;;;;;34.85;25.98;;;30.20;99.90;;;;;;5052435;28;20036;-63
2022/06/06 05:54:22;;;;;;;36.10;25.63;;;30.30;99.90;;;;;;5053324;28;20029;-62
2022/06/06 05:56:55;;;;;;;31.20;25.33;;;30.30;99.90;;;;;;5051658;28;20031;-61
2022/06/06 06:00:00;;;;;;;33.45;25.50;;;30.30;99.90;;;;;;5052155;28;20053;-61
2022/06/06 06:02:54;;;;;;;31.40;24.40;;;30.30;99.90;;;;;;5051305;28;20041;-62
2022/06/06 06:05:27;;;;;;;28.15;23.45;;;30.30;99.90;;;;;;5049331;28;20632;-61
2022/06/06 06:08:25;;;;;;;30.90;22.77;;;30.30;99.90;;;;;;5064069;28;20198;-62
2022/06/06 06:11:34;;;;;;;25.67;21.27;;;30.30;99.90;;;;;;5058680;28;20402;-62
2022/06/06 06:14:07;;;;;;;32.25;25.73;;;30.20;99.90;;;;;;5042378;28;20453;-62
2022/06/06 06:16:39;;;;;;;32.28;27.40;;;30.30;99.90;;;;;;5053389;28;20025;-62
2022/06/06 06:19:10;;;;;;;29.08;24.13;;;30.30;99.90;;;;;;5047843;28;20033;-62
2022/06/06 06:21:42;;;;;;;37.00;25.88;;;30.40;99.90;;;;;;5054339;28;20059;-63
2022/06/06 06:24:12;;;;;;;29.30;23.58;;;30.50;99.90;;;;;;5052394;28;20051;-62
2022/06/06 06:26:40;;;;;;;33.42;24.50;;;30.50;99.90;;;;;;5051911;28;20486;-62
2022/06/06 06:29:09;;;;;;;28.98;25.42;;;30.50;99.90;;;;;;5049535;28;20040;-62
2022/06/06 06:31:57;;;;;;;34.58;25.17;;;30.50;99.90;;;;;;5057903;28;20029;-63
2022/06/06 06:34:44;;;;;;;42.42;32.00;;;30.50;99.90;;;;;;5059688;28;20079;-63
2022/06/06 06:37:34;;;;;;;26.75;22.67;;;30.50;99.90;;;;;;5059595;28;20109;-62
2022/06/06 06:40:05;;;;;;;25.73;21.00;;;30.50;99.90;;;;;;5056215;28;20021;-63
2022/06/06 06:42:34;;;;;;;35.67;24.95;;;30.50;99.90;;;;;;5047944;28;20100;-62
2022/06/06 06:45:22;;;;;;;31.95;23.40;;;30.50;99.90;;;;;;5057224;28;20031;-62
2022/06/06 06:47:54;;;;;;;29.83;23.25;;;30.50;99.90;;;;;;5074118;28;20041;-63
2022/06/06 06:50:56;;;;;;;24.27;21.67;;;30.50;99.90;;;;;;5073929;28;20108;-63
2022/06/06 06:53:31;;;;;;;;;;;30.50;99.90;;;;;;5037945;28;20035;-62
2022/06/06 06:56:11;;;;;;;29.42;22.65;;;30.50;99.90;;;;;;5064854;28;19908;-63
2022/06/06 06:58:44;;;;;;;27.98;23.20;;;30.40;99.90;;;;;;5060629;28;20029;-64
2022/06/06 07:01:38;;;;;;;27.98;22.90;;;30.30;99.90;;;;;;5053986;28;20032;-63
2022/06/06 07:10:36;;;;;;;26.92;22.70;;;30.40;99.90;;;;;;5051890;28;20269;-62
2022/06/06 07:13:12;;;;;;;90.50;80.82;;;30.50;99.90;;;;;;5049960;28;20033;-63
2022/06/06 07:16:05;;;;;;;150.82;111.35;;;30.50;99.90;;;;;;5052213;28;20112;-62
2022/06/06 07:18:35;;;;;;;40.35;32.15;;;30.40;99.90;;;;;;5010642;28;20025;-62
2022/06/06 07:21:05;;;;;;;30.40;23.02;;;30.50;99.90;;;;;;5051979;28;20021;-64
2022/06/06 07:23:36;;;;;;;27.20;20.48;;;30.60;99.90;;;;;;5051847;28;20092;-64
2022/06/06 07:26:04;;;;;;;25.93;20.50;;;30.70;99.90;;;;;;5051885;28;20017;-64
2022/06/06 07:28:31;;;;;;;27.63;21.75;;;30.70;99.90;;;;;;5051681;28;20490;-63
2022/06/06 07:31:00;;;;;;;27.50;22.48;;;30.70;99.90;;;;;;5052065;28;20029;-63
2022/06/06 07:33:39;;;;;;;27.35;22.05;;;30.70;99.90;;;;;;5062831;28;20038;-62
2022/06/06 07:36:24;;;;;;;26.38;21.80;;;30.70;99.90;;;;;;5073314;28;20024;-64
2022/06/06 07:38:54;;;;;;;28.58;22.50;;;30.70;99.90;;;;;;5068660;28;20469;-62
2022/06/06 07:41:28;;;;;;;26.27;20.95;;;30.80;99.90;;;;;;5059634;28;20108;-62
2022/06/06 07:44:13;;;;;;;27.30;22.00;;;30.70;99.90;;;;;;5042577;28;20041;-63
2022/06/06 07:47:07;;;;;;;27.52;21.60;;;30.80;99.90;;;;;;5047156;28;20017;-63
2022/06/06 07:49:46;;;;;;;39.50;25.15;;;30.80;99.90;;;;;;5047582;28;20068;-63
2022/06/06 07:52:43;;;;;;;27.33;21.48;;;30.80;99.90;;;;;;5057029;28;20060;-65
2022/06/06 07:55:22;;;;;;;34.72;22.52;;;30.80;99.90;;;;;;5057922;28;20290;-62
2022/06/06 07:58:21;;;;;;;27.55;23.70;;;30.80;99.90;;;;;;5057802;28;20052;-62
2022/06/06 08:01:09;;;;;;;47.53;32.47;;;30.70;99.90;;;;;;5069503;28;20064;-63
2022/06/06 08:03:56;;;;;;;51.42;32.78;;;30.60;99.90;;;;;;5051466;28;20025;-64
2022/06/06 08:06:55;;;;;;;44.55;37.13;;;30.60;99.90;;;;;;5063484;28;20485;-64
2022/06/06 08:10:03;;;;;;;29.83;24.60;;;30.60;99.90;;;;;;5062572;28;20049;-62
2022/06/06 08:12:47;;;;;;;23.95;19.70;;;30.60;99.90;;;;;;5020116;28;20086;-63
2022/06/06 08:15:39;;;;;;;25.10;19.58;;;30.60;99.90;;;;;;5044254;28;20500;-64
2022/06/06 08:18:24;;;;;;;20.63;16.15;;;30.40;99.90;;;;;;5027659;28;20033;-63
2022/06/06 08:21:10;;;;;;;24.92;18.35;;;30.40;99.90;;;;;;5047163;28;20489;-63
2022/06/06 08:23:37;;;;;;;26.30;18.83;;;30.40;99.90;;;;;;5046908;28;20037;-63
2022/06/06 08:26:05;;;;;;;28.23;20.98;;;30.30;99.90;;;;;;5047317;28;20561;-63
2022/06/06 08:28:32;;;;;;;31.80;23.45;;;30.40;99.90;;;;;;5046254;28;20068;-63
2022/06/06 08:30:59;;;;;;;100.95;72.68;;;30.30;99.90;;;;;;5049554;28;20029;-63
2022/06/06 08:33:26;;;;;;;107.47;86.20;;;30.30;99.90;;;;;;5052198;28;20029;-63
2022/06/06 08:36:17;;;;;;;78.15;60.53;;;30.30;99.90;;;;;;5051883;28;20361;-62
2022/06/06 08:38:50;;;;;;;56.60;42.63;;;30.30;99.90;;;;;;5056328;28;20033;-61
2022/06/06 08:41:38;;;;;;;71.38;53.80;;;30.30;99.90;;;;;;5063074;28;20032;-62
2022/06/06 08:44:23;;;;;;;46.47;37.13;;;30.20;99.90;;;;;;5060433;28;20051;-63
2022/06/06 08:47:28;;;;;;;23.88;20.35;;;30.20;99.90;;;;;;5059249;28;20042;-62
2022/06/06 08:50:47;;;;;;;45.97;35.35;;;30.20;99.90;;;;;;5054913;28;20037;-62
2022/06/06 08:53:49;;;;;;;160.32;128.75;;;30.30;99.90;;;;;;5045128;28;20127;-65
2022/06/06 08:56:28;;;;;;;43.85;36.45;;;30.30;99.90;;;;;;5005222;28;20073;-62
2022/06/06 08:59:01;;;;;;;25.80;20.98;;;30.30;99.90;;;;;;5062428;28;20035;-62
2022/06/06 09:01:46;;;;;;;29.33;21.05;;;30.30;99.90;;;;;;5063960;28;20040;-62
2022/06/06 09:05:00;;;;;;;26.98;20.83;;;30.30;99.90;;;;;;5060125;28;20047;-62
2022/06/06 09:07:35;;;;;;;27.77;22.85;;;30.30;99.90;;;;;;5037443;28;20045;-63
2022/06/06 09:10:36;;;;;;;26.70;21.60;;;30.30;99.90;;;;;;5065060;28;20104;-64
2022/06/06 09:13:08;;;;;;;26.67;21.70;;;30.30;99.90;;;;;;5057880;28;20040;-64
2022/06/06 09:15:46;;;;;;;28.17;22.70;;;30.20;99.90;;;;;;5052448;28;20155;-64
2022/06/06 09:18:34;;;;;;;77.18;52.45;;;30.20;99.90;;;;;;5051967;28;20070;-65
2022/06/06 09:21:54;;;;;;;131.70;85.00;;;30.20;99.90;;;;;;5051982;28;20025;-65
2022/06/06 09:24:51;;;;;;;59.22;41.95;;;30.10;99.90;;;;;;4975464;28;20451;-62
2022/06/06 09:27:27;;;;;;;118.57;79.82;;;30.10;99.90;;;;;;5058977;28;20027;-64
2022/06/06 09:30:12;;;;;;;67.53;43.55;;;30.10;99.90;;;;;;5061556;28;20288;-64
2022/06/06 09:33:15;;;;;;;58.38;37.03;;;30.00;99.90;;;;;;5059796;28;20500;-63
2022/06/06 09:36:27;;;;;;;61.50;43.72;;;30.00;99.90;;;;;;5055310;28;20508;-62
2022/06/06 09:39:13;;;;;;;65.13;41.45;;;30.00;99.90;;;;;;5046930;28;20029;-67
2022/06/06 09:42:06;;;;;;;130.70;88.43;;;30.00;99.90;;;;;;5048701;28;20083;-62
2022/06/06 09:45:03;;;;;;;49.58;34.42;;;30.00;99.90;;;;;;5051223;28;20040;-62
2022/06/06 09:48:07;;;;;;;91.38;62.47;;;29.90;99.90;;;;;;5050034;28;20030;-61
2022/06/06 09:50:59;;;;;;;50.20;34.15;;;29.90;99.90;;;;;;5048610;28;20033;-63
2022/06/06 10:00:27;;;;;;;29.25;21.23;;;29.70;99.90;;;;;;5051759;28;20104;-61
2022/06/06 10:03:21;;;;;;;33.25;20.65;;;29.80;99.90;;;;;;5049040;28;20482;-60
2022/06/06 10:06:09;;;;;;;28.67;20.85;;;29.90;99.90;;;;;;5045430;28;20028;-62
2022/06/06 10:09:00;;;;;;;34.00;23.10;;;29.80;99.90;;;;;;5045540;28;20131;-61
2022/06/06 10:12:07;;;;;;;32.42;23.75;;;29.80;99.90;;;;;;5049160;28;20525;-62
2022/06/06 10:14:42;;;;;;;35.97;21.63;;;29.80;99.90;;;;;;5020110;28;20053;-62
2022/06/06 10:17:33;;;;;;;30.13;22.15;;;29.70;99.90;;;;;;5049438;28;20037;-63
2022/06/06 10:20:18;;;;;;;61.55;42.38;;;29.80;99.90;;;;;;5046958;28;20086;-63
2022/06/06 10:22:57;;;;;;;190.63;137.98;;;29.80;99.90;;;;;;5050851;28;20092;-64
2022/06/06 10:26:01;;;;;;;247.07;162.18;;;29.70;99.90;;;;;;5046441;28;20067;-63
2022/06/06 10:28:59;;;;;;;74.85;58.33;;;29.70;99.90;;;;;;5016757;28;20047;-62
2022/06/06 10:31:47;;;;;;;58.15;40.50;;;29.70;99.90;;;;;;5045574;28;20025;-64
2022/06/06 10:34:44;;;;;;;40.47;30.15;;;29.60;99.90;;;;;;5048354;28;20283;-63
2022/06/06 10:37:32;;;;;;;187.95;146.05;;;29.60;99.90;;;;;;5053047;28;20032;-66
2022/06/06 10:40:21;;;;;;;44.10;28.35;;;29.60;99.90;;;;;;5048981;28;20029;-64
2022/06/06 10:42:57;;;;;;;32.85;22.40;;;29.60;99.90;;;;;;5045724;28;20370;-62
2022/06/06 10:45:31;;;;;;;34.13;25.75;;;29.50;99.90;;;;;;5047732;28;20097;-64
2022/06/06 10:48:10;;;;;;;31.42;21.85;;;29.50;99.90;;;;;;5039205;28;20053;-63
2022/06/06 10:51:36;;;;;;;25.02;20.38;;;29.50;99.90;;;;;;5053049;28;20143;-65
2022/06/06 10:53:54;;;;;;;28.00;20.85;;;29.50;99.90;;;;;;5053398;28;20028;-64
2022/06/06 10:56:46;;;;;;;58.80;37.67;;;29.50;99.90;;;;;;5058591;28;20032;-64
2022/06/06 10:59:15;;;;;;;;;;;29.40;99.90;;;;;;5051113;28;20143;-63
2022/06/06 11:01:56;;;;;;;53.70;37.90;;;29.50;99.90;;;;;;5063405;28;19931;-63
2022/06/06 11:04:35;;;;;;;55.35;33.60;;;29.50;99.90;;;;;;5061919;28;20374;-63
2022/06/06 11:07:26;;;;;;;83.30;57.63;;;29.40;99.90;;;;;;5060040;28;20040;-63
2022/06/06 11:10:11;;;;;;;90.63;59.65;;;29.50;99.90;;;;;;5060397;28;20029;-64
2022/06/06 11:12:46;;;;;;;66.47;42.15;;;29.40;99.90;;;;;;5060784;28;20036;-63
2022/06/06 11:15:12;;;;;;;59.13;40.78;;;29.40;99.90;;;;;;5063907;28;20020;-64
2022/06/06 11:18:11;;;;;;;127.07;82.55;;;29.40;99.90;;;;;;5062326;28;20020;-64
2022/06/06 11:21:15;;;;;;;163.52;96.40;;;29.40;99.90;;;;;;5058891;28;20024;-62
2022/06/06 11:23:46;;;;;;;113.72;72.40;;;29.50;99.90;;;;;;4940429;28;20032;-64
2022/06/06 11:26:41;;;;;;;128.18;77.45;;;29.50;99.90;;;;;;5061830;28;20068;-62
2022/06/06 11:29:25;;;;;;;99.88;57.33;;;29.50;99.90;;;;;;5062725;28;20021;-63
2022/06/06 11:32:39;;;;;;;100.18;56.58;;;29.40;99.90;;;;;;5059138;28;20474;-64
2022/06/06 11:35:26;;;;;;;123.90;69.82;;;29.40;99.90;;;;;;5012520;28;20518;-64
2022/06/06 11:38:14;;;;;;;122.72;69.38;;;29.30;99.90;;;;;;5060289;28;20040;-62
2022/06/06 11:40:59;;;;;;;158.20;88.88;;;29.20;99.90;;;;;;5057540;28;20032;-64
2022/06/06 11:43:47;;;;;;;64.95;42.15;;;29.20;99.90;;;;;;5059356;28;20026;-61
2022/06/06 11:46:47;;;;;;;90.85;52.40;;;29.10;99.90;;;;;;5059756;28;20025;-64
2022/06/06 11:49:49;;;;;;;120.35;62.45;;;29.10;99.90;;;;;;5054921;28;20036;-64
2022/06/06 11:52:25;;;;;;;135.88;74.82;;;29.00;99.90;;;;;;5065807;28;20025;-64
2022/06/06 11:55:10;;;;;;;139.73;75.05;;;29.00;99.90;;;;;;5073138;28;20485;-61
2022/06/06 11:57:58;;;;;;;119.50;70.60;;;29.00;99.90;;;;;;5072950;28;20036;-63
2022/06/06 12:00:52;;;;;;;96.63;55.88;;;29.00;99.90;;;;;;5064298;28;20032;-62
2022/06/06 12:03:36;;;;;;;126.95;85.50;;;29.10;99.90;;;;;;5055882;28;20024;-61
2022/06/06 12:06:25;;;;;;;115.25;75.50;;;29.00;99.90;;;;;;5077401;28;20504;-63
2022/06/06 12:09:20;;;;;;;124.38;85.22;;;29.10;99.90;;;;;;5052771;28;20133;-63
2022/06/06 12:12:23;;;;;;;94.32;60.03;;;29.10;99.90;;;;;;5056796;28;20100;-63
2022/06/06 12:15:17;;;;;;;89.68;53.72;;;29.10;99.90;;;;;;5045505;28;20033;-61
2022/06/06 12:18:14;;;;;;;75.15;45.25;;;29.10;99.90;;;;;;5048812;28;20020;-63
2022/06/06 12:21:15;;;;;;;90.70;51.88;;;29.00;99.90;;;;;;5077130;28;20076;-62
2022/06/06 12:24:28;;;;;;;91.43;54.83;;;29.00;99.90;;;;;;5070505;28;20523;-63
2022/06/06 12:26:58;;;;;;;64.45;39.35;;;28.90;99.90;;;;;;5013943;28;20044;-62
2022/06/06 12:29:51;;;;;;;90.55;60.88;;;28.80;99.90;;;;;;5036494;28;20375;-59
2022/06/06 12:32:48;;;;;;;59.38;38.25;;;28.90;99.90;;;;;;5037037;28;20033;-62
2022/06/06 12:35:37;;;;;;;99.78;58.45;;;28.90;99.90;;;;;;5070474;28;20032;-62
2022/06/06 12:38:13;;;;;;;111.95;76.38;;;28.80;99.90;;;;;;5074334;28;20079;-62
2022/06/06 12:40:55;;;;;;;57.67;39.92;;;28.80;99.90;;;;;;5050358;28;20029;-63
2022/06/06 12:43:31;;;;;;;52.97;34.25;;;28.80;99.90;;;;;;5055310;28;20032;-63
2022/06/06 12:46:34;;;;;;;252.05;177.20;;;28.80;99.90;;;;;;5060990;28;20028;-62
2022/06/06 12:49:51;;;;;;;52.08;37.50;;;28.80;99.90;;;;;;5051651;28;20398;-62
2022/06/06 12:53:02;;;;;;;120.57;83.10;;;28.80;99.90;;;;;;4993113;28;20071;-63
2022/06/06 12:55:56;;;;;;;91.00;61.33;;;28.70;99.90;;;;;;5046251;28;20461;-62
2022/06/06 12:58:32;;;;;;;102.30;72.10;;;28.70;99.90;;;;;;5057310;28;20071;-63
2022/06/06 13:01:40;;;;;;;47.05;33.35;;;28.70;99.90;;;;;;5066627;28;20028;-63
2022/06/06 13:04:16;;;;;;;75.65;53.85;;;28.70;99.90;;;;;;5043506;28;20039;-63
2022/06/06 13:06:54;;;;;;;66.38;48.58;;;28.70;99.90;;;;;;5049235;28;20022;-63
2022/06/06 13:09:38;;;;;;;47.28;38.10;;;28.70;99.90;;;;;;5047511;28;20017;-62
2022/06/06 13:12:23;;;;;;;40.28;32.13;;;28.70;99.90;;;;;;5048928;28;20029;-64
2022/06/06 13:15:04;;;;;;;29.83;20.75;;;28.70;99.90;;;;;;5054267;28;20024;-62
2022/06/06 13:18:15;;;;;;;52.92;34.63;;;28.70;99.90;;;;;;5063713;28;20024;-63
2022/06/06 13:20:50;;;;;;;37.47;24.60;;;28.70;99.90;;;;;;4930293;29;20042;-62
2022/06/06 13:23:39;;;;;;;54.78;35.67;;;28.70;99.90;;;;;;5049037;28;20107;-63
2022/06/06 13:26:24;;;;;;;55.88;38.47;;;28.60;99.90;;;;;;5053249;28;20025;-63
2022/06/06 13:28:53;;;;;;;46.35;30.92;;;28.50;99.90;;;;;;5053617;28;20108;-61
2022/06/06 13:31:27;;;;;;;38.83;24.33;;;28.50;99.90;;;;;;5055782;28;20576;-63
2022/06/06 13:34:12;;;;;;;33.45;24.20;;;28.50;99.90;;;;;;5052621;28;20035;-64
2022/06/06 13:37:10;;;;;;;34.47;23.80;;;28.50;99.90;;;;;;5046659;28;20031;-62
2022/06/06 13:40:05;;;;;;;32.75;22.85;;;28.40;99.90;;;;;;5050086;28;20462;-61
2022/06/06 13:42:35;;;;;;;30.90;22.58;;;28.40;99.90;;;;;;5029909;28;20029;-61
2022/06/06 13:45:17;;;;;;;33.30;22.60;;;28.40;99.90;;;;;;5051126;28;20025;-63
2022/06/06 13:48:00;;;;;;;31.98;23.55;;;28.40;99.90;;;;;;5052275;28;20021;-64
2022/06/06 13:50:47;;;;;;;34.53;22.95;;;28.40;99.90;;;;;;5038894;28;20033;-63
2022/06/06 13:53:25;;;;;;;34.65;24.85;;;28.40;99.90;;;;;;5056610;28;20025;-63
2022/06/06 13:56:18;;;;;;;34.85;24.70;;;28.40;99.90;;;;;;5056373;28;20033;-65